Aérodrome :
LOGIN :

S'inscrire | Disclaimer

   EN    FR    IT 

 










Légende :    VFR   VFR Marginal   IFR   IFR Intensif   IFR Très Intensif
Visi : 
Plafond : 
>= 8 km
>= 3000ft
5 à 8 km
1000 à 3000 ft
1500m à 5 km
500 à 1000 ft
800 à 1500m
200 à 500 ft
< 800m
< 200 ft
Symboles :   Orages  Brouillard  Fortes neiges  Fortes précipitations  Vent > 20 kt
SIGMETs :   Divers  Orages  Givrage  Turbulence  Onde Orograph.  Cendres Volcan.







- Altitude de l'aérodrome : 614 ft
- Code IATA : CRL


EBCI - Charleroi

DERNIER METAR :
  • 200320Z 05004KT 3000 BR NSC 00/M00 Q1017 NOSIG

METARs EXPIRÉS :
  • 200250Z VRB01KT 4000 BR NSC 00/M01 Q1017 NOSIG
  • 200220Z 08002KT 4000 BR FEW020 00/M00 Q1016 NOSIG
  • 200150Z 10004KT 4500 BR FEW020 00/M00 Q1016 NOSIG
  • 200120Z 08002KT 4500 BR FEW020 00/M00 Q1016 NOSIG
  • 200050Z 06002KT 4500 BR FEW020 00/M00 Q1016 NOSIG

TAF AMD TAF EBCI
Valide du 20 à 00h jusqu'au 21 à 06h UTC


192315Z 2000/2106 09003KT 9999 FEW030
TEMPO 2001/2009 4000 BR
Pas de NOTAMs connus pour ce terrain.



MET'MAP, la Météo Aéronautique d'un coup d'oeil ! - Copyright ORBIFLY Décembre 2007 - Disclaimer

ORBIFLY MET'MAP TEAM :

Programmation & Développement : Alexandra Zaïnal
Conception & Développement : Baudouin d'Aumeries
Co-Programmation & Développement : Marc-Olivier Méhu
Soutien technique & logistique : Manuel Goepfert

Contact : metmap@orbifly.com




SOURCES & CREDITS :

   NOAA